Time;durP1;ratioP1;P1;durP2;ratioP2;P2;SDS_P1;SDS_P2;PMS_P1;PMS_P2;Temp;Humidity;BMP_temperature;BMP_pressure;BME280_temperature;BME280_humidity;BME280_pressure;Samples;Min_cycle;Max_cycle;Signal;HPM_P1;HPM_P2
2022/01/28 00:01:53;;;;;;;27.00;3.90;;;5.20;99.90;;;;;;4904130;29;20152;-70
2022/01/28 00:04:20;;;;;;;24.17;3.40;;;5.30;99.90;;;;;;4863006;28;133542;-70
2022/01/28 00:06:46;;;;;;;22.83;3.53;;;5.20;99.90;;;;;;4922264;29;20078;-71
2022/01/28 00:09:12;;;;;;;20.10;2.97;;;5.20;99.90;;;;;;4862728;29;20058;-70
2022/01/28 00:11:38;;;;;;;17.70;2.83;;;5.20;99.90;;;;;;4915590;28;20051;-70
2022/01/28 00:14:24;;;;;;;18.83;2.65;;;5.20;99.90;;;;;;4862895;29;165451;-70
2022/01/28 00:38:35;;;;;;;29.02;4.18;;;5.20;99.90;;;;;;4944691;28;20045;-70
2022/01/28 00:41:02;;;;;;;22.80;3.10;;;5.20;99.90;;;;;;4950718;28;20058;-70
2022/01/28 00:43:28;;;;;;;17.42;2.25;;;5.30;99.90;;;;;;4944514;28;20058;-71
2022/01/28 00:45:55;;;;;;;19.75;2.45;;;5.30;99.90;;;;;;4959736;28;245843;-71
2022/01/28 00:48:21;;;;;;;14.88;2.47;;;5.30;99.90;;;;;;4922034;28;20042;-71
2022/01/28 00:50:47;;;;;;;14.35;2.38;;;5.30;99.90;;;;;;4958850;28;55899;-71
2022/01/28 00:53:14;;;;;;;17.73;2.28;;;5.20;99.90;;;;;;4944878;28;20057;-71
2022/01/28 00:55:40;;;;;;;16.85;2.17;;;5.20;99.90;;;;;;4962929;28;111873;-71
2022/01/28 00:58:06;;;;;;;15.55;2.63;;;5.20;99.90;;;;;;4944953;28;20049;-71
2022/01/28 01:00:32;;;;;;;18.27;2.45;;;5.10;99.90;;;;;;4948121;28;157994;-71
2022/01/28 01:02:58;;;;;;;16.73;2.45;;;5.20;99.90;;;;;;4931966;28;20517;-70
2022/01/28 01:05:24;;;;;;;23.08;2.80;;;5.10;99.90;;;;;;4950441;28;103864;-70
2022/01/28 01:07:50;;;;;;;22.40;3.00;;;5.20;99.90;;;;;;4944693;28;20069;-70
2022/01/28 01:10:16;;;;;;;19.10;2.38;;;5.20;99.90;;;;;;4951947;28;139265;-70
2022/01/28 01:12:45;;;;;;;19.48;2.88;;;5.10;99.90;;;;;;4940751;28;20062;-70
2022/01/28 01:15:17;;;;;;;20.58;3.13;;;5.10;99.90;;;;;;4953004;28;242800;-70
2022/01/28 01:17:57;;;;;;;21.00;2.63;;;5.00;99.90;;;;;;4935065;28;20058;-70
2022/01/28 01:23:04;;;;;;;17.30;3.25;;;5.00;99.90;;;;;;4939285;28;20059;-70
2022/01/28 01:25:31;;;;;;;28.23;3.28;;;5.00;99.90;;;;;;4957021;28;118464;-70
2022/01/28 01:27:58;;;;;;;26.42;3.47;;;5.10;99.90;;;;;;4915507;28;20035;-71
2022/01/28 01:30:31;;;;;;;22.50;3.55;;;5.10;99.90;;;;;;4951554;28;150473;-70
2022/01/28 01:32:58;;;;;;;24.05;3.53;;;5.10;99.90;;;;;;4941580;28;20046;-70
2022/01/28 01:35:24;;;;;;;25.67;4.05;;;5.20;99.90;;;;;;4947501;28;91109;-71
2022/01/28 01:37:50;;;;;;;24.48;3.38;;;5.20;99.90;;;;;;4941417;28;20055;-70
2022/01/28 01:40:25;;;;;;;30.35;3.40;;;5.20;99.90;;;;;;4961015;28;82621;-70
2022/01/28 01:43:05;;;;;;;22.58;3.30;;;5.20;99.90;;;;;;4936341;28;20326;-70
2022/01/28 01:53:28;;;;;;;32.95;4.10;;;5.20;99.90;;;;;;4926306;28;20117;-70
2022/01/28 01:55:55;;;;;;;26.63;3.92;;;5.20;99.90;;;;;;4953468;28;189300;-70
2022/01/28 01:58:30;;;;;;;29.55;3.90;;;5.20;99.90;;;;;;4948463;28;20039;-70
2022/01/28 02:01:01;;;;;;;24.23;3.70;;;5.20;99.90;;;;;;4943983;28;162303;-70
2022/01/28 02:03:28;;;;;;;28.60;4.45;;;5.20;99.90;;;;;;4950652;28;20042;-70
2022/01/28 02:05:59;;;;;;;25.25;3.90;;;5.20;99.90;;;;;;4952046;28;187514;-70
2022/01/28 02:08:27;;;;;;;27.63;3.55;;;5.20;99.90;;;;;;4943508;28;20045;-70
2022/01/28 02:10:58;;;;;;;29.08;4.03;;;5.20;99.90;;;;;;4953231;28;197951;-70
2022/01/28 02:13:26;;;;;;;26.00;3.70;;;5.20;99.90;;;;;;4974195;22;20045;-68
2022/01/28 02:15:57;;;;;;;26.45;3.72;;;5.30;99.90;;;;;;4978428;28;147782;-68
2022/01/28 02:18:24;;;;;;;26.50;4.15;;;5.30;99.90;;;;;;4949379;28;20101;-69
2022/01/28 02:20:54;;;;;;;27.75;3.65;;;5.30;99.90;;;;;;4958331;28;116487;-68
2022/01/28 02:23:22;;;;;;;25.90;4.00;;;5.40;99.90;;;;;;4935523;28;20055;-69
2022/01/28 02:25:48;;;;;;;19.48;3.15;;;5.40;99.90;;;;;;4948788;28;52044;-69
2022/01/28 02:28:19;;;;;;;28.60;4.13;;;5.40;99.90;;;;;;4917170;28;20338;-69
2022/01/28 02:30:45;;;;;;;28.58;4.30;;;5.40;99.90;;;;;;4954158;28;177335;-68
2022/01/28 02:33:15;;;;;;;24.65;3.45;;;5.50;99.90;;;;;;4941833;28;20049;-68
2022/01/28 02:35:43;;;;;;;26.92;4.97;;;5.50;99.90;;;;;;4948444;28;211321;-69
2022/01/28 02:38:13;;;;;;;25.95;3.83;;;5.50;99.90;;;;;;4921942;28;20057;-69
2022/01/28 02:40:44;;;;;;;29.30;4.57;;;5.50;99.90;;;;;;4967381;28;55576;-69
2022/01/28 02:45:44;;;;;;;28.17;3.83;;;5.50;99.90;;;;;;4930047;28;207118;-68
2022/01/28 02:48:17;;;;;;;31.02;4.28;;;5.50;99.90;;;;;;4931941;28;20198;-68
2022/01/28 02:50:59;;;;;;;30.58;4.10;;;5.50;99.90;;;;;;4926003;28;117156;-68
2022/01/28 02:53:30;;;;;;;25.60;3.75;;;5.50;99.90;;;;;;4935136;28;20045;-69
2022/01/28 02:56:00;;;;;;;29.93;3.80;;;5.50;99.90;;;;;;4943314;28;205670;-69
2022/01/28 02:58:27;;;;;;;30.83;3.70;;;5.50;99.90;;;;;;4923584;28;20302;-69
2022/01/28 03:00:57;;;;;;;26.05;3.75;;;5.50;99.90;;;;;;4958458;28;20058;-69
2022/01/28 03:03:24;;;;;;;25.60;3.83;;;5.50;99.90;;;;;;4940118;28;20058;-69
2022/01/28 03:05:51;;;;;;;24.30;4.00;;;5.50;99.90;;;;;;4922809;28;188289;-69
2022/01/28 03:08:19;;;;;;;33.20;4.60;;;5.50;99.90;;;;;;4939108;28;20042;-69
2022/01/28 03:11:12;;;;;;;26.27;3.88;;;5.50;99.90;;;;;;4964462;28;114410;-68
2022/01/28 03:16:13;;;;;;;27.30;4.28;;;5.50;99.90;;;;;;4932804;28;264384;-69
2022/01/28 03:19:01;;;;;;;35.72;4.13;;;5.50;99.90;;;;;;4933090;28;138902;-70
2022/01/28 03:23:58;;;;;;;34.15;4.65;;;5.40;99.90;;;;;;4923663;28;116285;-69
2022/01/28 03:26:26;;;;;;;37.05;4.80;;;5.40;99.90;;;;;;4960851;28;20070;-69
2022/01/28 03:28:53;;;;;;;23.38;3.95;;;5.40;99.90;;;;;;4919555;28;222265;-69
2022/01/28 03:31:19;;;;;;;27.45;4.45;;;5.40;99.90;;;;;;4959668;28;20063;-69
2022/01/28 03:33:46;;;;;;;28.03;3.63;;;5.30;99.90;;;;;;4918620;28;76309;-69
2022/01/28 03:36:13;;;;;;;25.83;3.97;;;5.20;99.90;;;;;;4958866;28;20054;-69
2022/01/28 03:38:41;;;;;;;30.40;3.85;;;5.20;99.90;;;;;;4919605;28;149983;-69
2022/01/28 03:41:16;;;;;;;30.77;4.10;;;5.20;99.90;;;;;;4944709;28;20078;-69
2022/01/28 03:43:47;;;;;;;25.60;3.72;;;5.10;99.90;;;;;;4930486;28;106688;-69
2022/01/28 03:46:14;;;;;;;24.27;4.20;;;5.10;99.90;;;;;;4960236;28;20058;-69
2022/01/28 03:48:40;;;;;;;27.38;4.45;;;5.10;99.90;;;;;;4924594;28;189719;-69
2022/01/28 03:51:07;;;;;;;28.63;4.00;;;5.10;99.90;;;;;;4963341;28;20048;-69
2022/01/28 03:53:33;;;;;;;27.85;4.28;;;5.10;99.90;;;;;;4930836;28;20652;-69
2022/01/28 03:55:59;;;;;;;28.73;4.70;;;5.10;99.90;;;;;;4937604;28;124855;-68
2022/01/28 03:58:26;;;;;;;26.92;3.55;;;5.20;99.90;;;;;;4927662;28;20090;-69
2022/01/28 04:00:56;;;;;;;25.25;4.22;;;5.20;99.90;;;;;;4945401;28;97484;-69
2022/01/28 04:13:52;;;;;;;28.15;3.75;;;5.20;99.70;;;;;;4918325;28;250665;-69
2022/01/28 04:17:19;;;;;;;22.63;3.45;;;5.30;99.30;;;;;;4966454;28;20057;-69
2022/01/28 04:19:16;;;;;;;25.88;3.88;;;5.30;99.60;;;;;;4928617;28;199055;-69
2022/01/28 04:21:42;;;;;;;29.45;4.43;;;5.30;99.50;;;;;;4969791;28;20487;-69
2022/01/28 04:24:08;;;;;;;30.27;4.28;;;5.30;99.60;;;;;;4933002;28;20053;-69
2022/01/28 04:26:34;;;;;;;24.98;3.80;;;5.40;99.40;;;;;;4956654;28;20046;-69
2022/01/28 04:29:00;;;;;;;30.55;3.90;;;5.40;99.70;;;;;;4926816;28;182182;-69
2022/01/28 04:31:26;;;;;;;30.23;4.60;;;5.40;99.40;;;;;;4956607;28;20078;-68
2022/01/28 04:33:54;;;;;;;27.60;3.78;;;5.40;99.40;;;;;;4931018;28;81986;-68
2022/01/28 04:36:22;;;;;;;29.70;4.10;;;5.40;99.70;;;;;;4954630;28;20501;-68
2022/01/28 04:41:26;;;;;;;34.22;4.63;;;5.40;99.90;;;;;;4951649;28;20035;-68
2022/01/28 04:44:00;;;;;;;36.65;4.47;;;5.40;99.90;;;;;;4924949;28;125139;-68
2022/01/28 04:46:36;;;;;;;32.80;4.78;;;5.40;99.90;;;;;;4976474;28;20043;-68
2022/01/28 04:49:12;;;;;;;31.20;4.18;;;5.40;99.90;;;;;;4935184;28;124333;-67
2022/01/28 04:57:19;;;;;;;25.10;4.18;;;5.40;99.90;;;;;;4932646;28;20039;-67
2022/01/28 05:02:25;;;;;;;30.17;4.28;;;5.30;99.90;;;;;;4939878;28;20039;-68
2022/01/28 05:15:31;;;;;;;40.75;4.50;;;5.30;99.90;;;;;;4934347;28;20058;-69
2022/01/28 05:26:33;;;;;;;29.95;4.63;;;5.30;99.90;;;;;;4945435;28;20050;-69
2022/01/28 05:28:59;;;;;;;32.17;4.20;;;5.20;99.90;;;;;;4898991;28;93394;-69
2022/01/28 05:31:26;;;;;;;33.28;4.50;;;5.30;99.90;;;;;;4935116;28;20043;-69
2022/01/28 05:33:52;;;;;;;30.98;4.50;;;5.30;99.90;;;;;;4903557;28;85274;-70
2022/01/28 05:36:18;;;;;;;32.85;4.00;;;5.20;99.90;;;;;;4959902;28;20043;-70
2022/01/28 05:38:44;;;;;;;32.30;4.30;;;5.20;99.90;;;;;;4893960;28;260280;-69
2022/01/28 05:41:10;;;;;;;31.48;4.05;;;5.20;99.90;;;;;;4970611;28;20065;-69
2022/01/28 05:43:36;;;;;;;37.15;4.38;;;5.10;99.90;;;;;;4933404;28;20542;-70
2022/01/28 05:46:03;;;;;;;28.13;4.30;;;5.10;99.90;;;;;;4930039;28;210064;-69
2022/01/28 05:48:29;;;;;;;27.80;4.97;;;5.00;99.90;;;;;;4938814;28;20057;-69
2022/01/28 05:50:56;;;;;;;30.80;4.57;;;5.00;99.90;;;;;;4948158;28;87761;-70
2022/01/28 05:53:22;;;;;;;29.27;4.18;;;5.00;99.90;;;;;;4924591;28;20073;-70
2022/01/28 05:55:48;;;;;;;26.77;4.22;;;4.90;99.90;;;;;;4934732;28;77912;-70
2022/01/28 05:58:14;;;;;;;29.85;4.40;;;4.90;99.90;;;;;;4939446;28;20045;-70
2022/01/28 06:00:40;;;;;;;34.05;4.22;;;4.80;99.90;;;;;;4952707;28;237277;-70
2022/01/28 06:03:06;;;;;;;28.98;4.35;;;4.80;99.90;;;;;;4940142;28;20061;-70
2022/01/28 06:05:33;;;;;;;35.85;4.30;;;4.80;99.90;;;;;;4925910;28;184455;-70
2022/01/28 06:08:00;;;;;;;37.75;5.20;;;4.80;99.90;;;;;;4937406;28;20080;-70
2022/01/28 06:10:27;;;;;;;29.67;4.25;;;4.80;99.90;;;;;;4942685;28;165432;-71
2022/01/28 06:12:54;;;;;;;33.50;4.93;;;4.80;99.90;;;;;;4920760;28;20047;-69
2022/01/28 06:15:20;;;;;;;28.95;4.07;;;4.90;99.90;;;;;;4963330;28;231584;-70
2022/01/28 06:17:46;;;;;;;33.45;4.57;;;4.90;99.90;;;;;;4937830;28;20415;-70
2022/01/28 06:20:18;;;;;;;34.17;4.60;;;4.90;99.90;;;;;;4932103;28;166593;-70
2022/01/28 06:22:44;;;;;;;25.65;4.25;;;4.90;99.90;;;;;;4927253;28;20071;-70
2022/01/28 06:25:13;;;;;;;37.55;5.18;;;5.00;99.90;;;;;;4929678;28;214725;-70
2022/01/28 06:27:39;;;;;;;36.55;4.28;;;5.00;99.90;;;;;;4920228;28;20083;-70
2022/01/28 06:30:06;;;;;;;24.85;3.97;;;5.00;99.90;;;;;;4939552;28;47090;-70
2022/01/28 06:32:33;;;;;;;23.10;3.80;;;5.00;99.90;;;;;;4940632;28;20277;-70
2022/01/28 06:35:00;;;;;;;36.13;4.53;;;5.10;99.90;;;;;;4900256;28;71786;-70
2022/01/28 06:37:27;;;;;;;30.02;4.10;;;5.10;99.90;;;;;;4966607;28;20480;-70
2022/01/28 06:39:54;;;;;;;29.65;3.92;;;5.10;99.90;;;;;;4904459;28;209076;-70
2022/01/28 06:42:20;;;;;;;26.83;3.92;;;5.10;99.90;;;;;;4979534;28;20063;-70
2022/01/28 06:44:46;;;;;;;30.85;4.65;;;5.20;99.90;;;;;;4932266;28;172685;-70
2022/01/28 06:47:13;;;;;;;29.85;3.65;;;5.20;99.90;;;;;;4946992;28;20047;-70
2022/01/28 06:49:39;;;;;;;24.33;3.75;;;5.20;99.90;;;;;;4925133;28;220217;-70
2022/01/28 06:52:06;;;;;;;29.75;4.18;;;5.20;99.90;;;;;;4960191;28;20051;-70
2022/01/28 06:54:32;;;;;;;26.48;4.15;;;5.20;99.90;;;;;;4915919;28;169493;-69
2022/01/28 06:56:59;;;;;;;28.05;3.78;;;5.10;99.90;;;;;;4942618;28;20069;-70
2022/01/28 06:59:25;;;;;;;24.88;3.38;;;5.20;99.90;;;;;;4915080;28;218680;-70
2022/01/28 07:01:53;;;;;;;29.48;3.92;;;5.10;99.90;;;;;;4970196;28;20062;-70
2022/01/28 07:04:19;;;;;;;24.02;3.78;;;5.10;99.90;;;;;;4887675;28;144407;-70
2022/01/28 07:06:46;;;;;;;27.90;3.22;;;5.10;99.90;;;;;;4966357;28;20050;-70
2022/01/28 07:09:12;;;;;;;25.15;3.97;;;5.10;99.90;;;;;;4908726;28;119049;-70
2022/01/28 07:11:38;;;;;;;26.52;4.43;;;5.10;99.90;;;;;;4972309;28;20047;-70
2022/01/28 07:14:05;;;;;;;24.40;3.53;;;5.10;99.90;;;;;;4929410;28;210745;-70
2022/01/28 07:16:31;;;;;;;30.63;4.03;;;5.10;99.90;;;;;;4945537;28;20145;-70
2022/01/28 07:18:58;;;;;;;22.67;3.60;;;5.00;99.90;;;;;;4919266;28;45943;-70
2022/01/28 07:21:24;;;;;;;31.02;4.03;;;5.10;99.90;;;;;;4950822;28;20051;-70
2022/01/28 07:23:50;;;;;;;25.08;4.15;;;5.10;99.90;;;;;;4915481;28;221065;-70
2022/01/28 07:26:16;;;;;;;31.75;4.30;;;5.00;99.90;;;;;;4970034;28;20077;-69
2022/01/28 07:28:42;;;;;;;26.10;3.72;;;5.00;99.90;;;;;;4922111;28;71188;-69
2022/01/28 07:31:10;;;;;;;30.08;4.30;;;5.00;99.90;;;;;;4951858;28;20054;-70
2022/01/28 07:33:36;;;;;;;30.92;4.10;;;5.00;99.90;;;;;;4941007;28;20378;-70
2022/01/28 07:36:02;;;;;;;27.05;3.08;;;5.00;99.90;;;;;;4946401;28;103966;-70
2022/01/28 07:38:28;;;;;;;26.83;3.60;;;5.00;99.90;;;;;;4940058;28;20050;-70
2022/01/28 07:40:57;;;;;;;29.48;3.67;;;5.00;99.90;;;;;;4948997;28;20051;-70
2022/01/28 07:43:23;;;;;;;29.42;4.28;;;5.00;99.90;;;;;;4940510;28;20053;-69
2022/01/28 07:45:49;;;;;;;30.92;4.43;;;4.90;99.90;;;;;;4949815;28;22424;-70
2022/01/28 07:48:15;;;;;;;27.52;5.13;;;4.90;99.90;;;;;;4926425;28;20038;-69
2022/01/28 07:50:42;;;;;;;41.15;4.43;;;4.90;99.90;;;;;;4966754;28;188103;-70
2022/01/28 07:53:10;;;;;;;24.13;3.47;;;4.90;99.90;;;;;;4956744;28;20050;-70
2022/01/28 07:55:36;;;;;;;32.58;4.20;;;4.90;99.90;;;;;;4944467;28;35881;-70
2022/01/28 07:58:03;;;;;;;33.15;4.53;;;4.80;99.90;;;;;;4944520;28;20046;-69
2022/01/28 08:00:29;;;;;;;27.70;3.67;;;4.80;99.90;;;;;;4943902;28;127397;-69
2022/01/28 08:02:55;;;;;;;29.83;4.30;;;4.80;99.90;;;;;;4958507;28;20054;-69
2022/01/28 08:05:21;;;;;;;30.75;3.90;;;4.70;99.90;;;;;;4933171;28;236204;-70
2022/01/28 08:07:48;;;;;;;28.67;4.10;;;4.70;99.90;;;;;;4924926;28;20063;-69
2022/01/28 08:10:16;;;;;;;24.98;3.53;;;4.60;99.90;;;;;;4937160;28;24902;-70
2022/01/28 08:20:00;;;;;;;25.98;3.67;;;4.40;99.90;;;;;;4877086;29;81021;-86
2022/01/28 08:23:35;;;;;;;30.17;3.95;;;4.30;99.90;;;;;;4900234;29;20056;-85
2022/01/28 08:26:50;;;;;;;31.92;4.45;;;4.40;99.90;;;;;;4649131;29;5950421;-86
2022/01/28 08:29:25;;;;;;;29.77;3.55;;;4.30;99.90;;;;;;4613719;29;6005046;-85
2022/01/28 08:32:04;;;;;;;28.42;3.78;;;4.30;99.90;;;;;;4870867;29;20049;-83
2022/01/28 08:34:45;;;;;;;29.30;3.85;;;4.30;99.90;;;;;;4813904;29;234856;-81
2022/01/28 08:41:42;;;;;;;27.85;4.53;;;4.40;99.90;;;;;;4837536;29;264490;-82
2022/01/28 08:48:08;;;;;;;;;;;;;;;;;;;;;
2022/01/28 08:51:40;;;;;;;28.27;3.70;;;4.50;99.90;;;;;;4432233;29;10003062;-85
2022/01/28 08:54:32;;;;;;;31.45;3.88;;;4.50;99.90;;;;;;4447329;29;10003864;-85
2022/01/28 08:57:44;;;;;;;;;;;;;;;;;;;;;
2022/01/28 09:00:43;;;;;;;35.22;4.47;;;4.60;99.90;;;;;;4804904;29;20054;-85
2022/01/28 09:07:59;;;;;;;;;;;;;;;;;;;;;
2022/01/28 09:21:44;;;;;;;28.45;4.35;;;5.20;99.90;;;;;;4403242;29;10003291;-85
2022/01/28 09:27:58;;;;;;;33.97;4.28;;;5.40;99.90;;;;;;4745538;30;20063;-84
2022/01/28 09:30:57;;;;;;;30.05;4.43;;;5.60;99.90;;;;;;4689353;30;183001;-85
2022/01/28 09:33:37;;;;;;;30.38;4.65;;;5.70;99.90;;;;;;5032619;27;20540;-70
2022/01/28 09:36:06;;;;;;;31.80;4.57;;;5.80;99.90;;;;;;4998221;28;21271;-70
2022/01/28 09:38:32;;;;;;;30.38;4.00;;;5.90;99.90;;;;;;4996628;28;20038;-70
2022/01/28 09:41:01;;;;;;;29.20;4.72;;;6.00;99.90;;;;;;4974153;28;140670;-70
2022/01/28 09:43:28;;;;;;;31.83;4.47;;;6.00;99.90;;;;;;4993654;28;20077;-70
2022/01/28 09:45:54;;;;;;;30.08;4.38;;;6.20;99.90;;;;;;4986230;23;230173;-69
2022/01/28 09:48:21;;;;;;;34.92;4.53;;;6.20;99.90;;;;;;4941805;28;20042;-70
2022/01/28 09:50:47;;;;;;;33.63;4.55;;;6.20;99.90;;;;;;4922934;28;237665;-69
2022/01/28 09:53:15;;;;;;;31.60;4.53;;;6.20;99.90;;;;;;4937790;28;20073;-69
2022/01/28 09:55:42;;;;;;;28.30;4.20;;;6.30;99.90;;;;;;4969160;28;51892;-70
2022/01/28 09:58:08;;;;;;;33.05;4.82;;;6.30;99.90;;;;;;4953459;28;20073;-70
2022/01/28 10:00:34;;;;;;;29.90;4.65;;;6.40;99.90;;;;;;4973117;28;235522;-70
2022/01/28 10:03:11;;;;;;;31.45;3.90;;;6.40;99.90;;;;;;4940588;28;20038;-69
2022/01/28 10:05:42;;;;;;;30.30;4.25;;;6.50;99.90;;;;;;4961058;28;233188;-70
2022/01/28 10:08:18;;;;;;;29.38;4.18;;;6.50;99.90;;;;;;4937300;28;20472;-70
2022/01/28 10:10:44;;;;;;;31.63;4.55;;;6.50;99.90;;;;;;4948922;28;205351;-70
2022/01/28 10:13:27;;;;;;;27.52;4.40;;;6.60;99.90;;;;;;4958882;28;20061;-70
2022/01/28 10:15:57;;;;;;;32.97;4.05;;;6.60;99.90;;;;;;4977425;28;139162;-70
2022/01/28 10:18:46;;;;;;;31.80;4.28;;;6.60;99.90;;;;;;4961528;28;20125;-70
2022/01/28 10:21:17;;;;;;;27.05;4.22;;;6.60;99.90;;;;;;4963223;28;20042;-70
2022/01/28 10:24:04;;;;;;;36.33;4.50;;;6.60;99.90;;;;;;4952251;28;23432;-70
2022/01/28 10:26:53;;;;;;;27.77;4.00;;;6.70;99.90;;;;;;4981667;28;20050;-70
2022/01/28 10:29:30;;;;;;;29.23;4.50;;;6.70;99.90;;;;;;4918263;28;210295;-70
2022/01/28 10:32:05;;;;;;;29.60;4.07;;;6.70;99.90;;;;;;4983442;28;20077;-70
2022/01/28 10:34:34;;;;;;;29.42;3.78;;;6.70;99.90;;;;;;4952734;28;218412;-70
2022/01/28 10:37:16;;;;;;;30.20;4.28;;;6.80;99.90;;;;;;4983215;28;20058;-70
2022/01/28 10:39:47;;;;;;;32.92;4.35;;;6.80;99.90;;;;;;4926225;28;59787;-70
2022/01/28 10:42:16;;;;;;;30.60;3.90;;;6.80;99.90;;;;;;4989983;28;20389;-70
2022/01/28 10:45:04;;;;;;;29.20;3.95;;;6.90;99.90;;;;;;4926833;28;164402;-70
2022/01/28 10:47:34;;;;;;;27.45;3.63;;;7.00;99.90;;;;;;4953472;28;20516;-70
2022/01/28 10:50:15;;;;;;;29.77;3.90;;;7.00;99.90;;;;;;4923695;28;179712;-70
2022/01/28 10:52:41;;;;;;;32.97;4.45;;;7.00;99.90;;;;;;4924706;28;20127;-69
2022/01/28 10:55:07;;;;;;;28.58;4.32;;;7.00;99.90;;;;;;4952448;28;82408;-70
2022/01/28 10:57:33;;;;;;;31.00;4.80;;;7.10;99.90;;;;;;4968320;28;20058;-68
2022/01/28 11:00:01;;;;;;;32.58;4.25;;;7.10;99.90;;;;;;4942921;28;273818;-70
2022/01/28 11:02:27;;;;;;;32.60;5.97;;;7.10;99.90;;;;;;4968276;28;20451;-70
2022/01/28 11:04:56;;;;;;;25.80;3.85;;;7.20;99.90;;;;;;4922159;28;230978;-70
2022/01/28 11:07:23;;;;;;;27.40;3.90;;;7.30;99.90;;;;;;4947805;28;20536;-70
2022/01/28 11:09:49;;;;;;;30.25;4.50;;;7.40;99.90;;;;;;4932931;28;179471;-70
2022/01/28 11:12:16;;;;;;;29.45;4.15;;;7.40;99.60;;;;;;4944142;28;20059;-69
2022/01/28 11:14:42;;;;;;;26.92;4.22;;;7.40;99.90;;;;;;4912270;28;89044;-69
2022/01/28 11:17:11;;;;;;;29.25;4.25;;;7.40;99.90;;;;;;4969971;28;20065;-70
2022/01/28 11:19:39;;;;;;;28.35;4.30;;;7.40;99.70;;;;;;4925613;28;72139;-70
2022/01/28 11:22:10;;;;;;;33.35;4.70;;;7.40;99.90;;;;;;4961191;28;20148;-70
2022/01/28 11:25:13;;;;;;;32.33;4.00;;;7.50;99.90;;;;;;4930262;28;258638;-70
2022/01/28 11:27:40;;;;;;;32.22;4.60;;;7.60;99.90;;;;;;4943307;28;20058;-68
2022/01/28 11:30:25;;;;;;;37.13;5.60;;;7.70;99.90;;;;;;4956215;28;194845;-70
2022/01/28 11:33:00;;;;;;;29.67;4.13;;;7.80;99.30;;;;;;4935378;28;20059;-69
2022/01/28 11:35:51;;;;;;;25.15;4.32;;;7.80;99.90;;;;;;4971860;28;41763;-70
2022/01/28 11:38:30;;;;;;;;;;;7.90;99.90;;;;;;4959013;28;20050;-70
2022/01/28 11:41:08;;;;;;;31.02;4.53;;;7.90;98.60;;;;;;4982812;28;19918;-70
2022/01/28 11:43:47;;;;;;;29.30;4.32;;;7.80;99.20;;;;;;4941637;28;20051;-71
2022/01/28 11:46:19;;;;;;;29.70;4.45;;;7.80;99.50;;;;;;4951985;28;20047;-71
2022/01/28 11:48:57;;;;;;;29.45;4.07;;;7.80;99.00;;;;;;4937109;28;143530;-70
2022/01/28 11:51:32;;;;;;;33.88;4.32;;;7.70;99.20;;;;;;4995872;28;20476;-68
2022/01/28 11:54:03;;;;;;;24.92;4.30;;;7.70;99.40;;;;;;4945919;28;166405;-70
2022/01/28 11:56:29;;;;;;;29.88;3.90;;;7.70;98.80;;;;;;4963726;28;20086;-71
2022/01/28 11:59:07;;;;;;;30.47;4.00;;;7.70;99.10;;;;;;4924484;28;161164;-70
2022/01/28 12:01:40;;;;;;;31.67;4.10;;;7.70;99.30;;;;;;4976724;28;20416;-70
2022/01/28 12:04:24;;;;;;;27.77;3.78;;;7.60;98.90;;;;;;4928014;28;73869;-70
2022/01/28 12:07:03;;;;;;;29.42;4.32;;;7.60;98.60;;;;;;4967947;28;20055;-70
2022/01/28 12:09:33;;;;;;;31.55;4.35;;;7.60;99.30;;;;;;4923927;28;251856;-71
2022/01/28 12:12:00;;;;;;;26.30;4.40;;;7.60;99.00;;;;;;4958973;28;20054;-70
2022/01/28 12:14:58;;;;;;;29.27;4.18;;;7.60;99.00;;;;;;4924862;28;136668;-70
2022/01/28 12:17:31;;;;;;;24.33;4.13;;;7.60;98.80;;;;;;4967182;28;20054;-70
2022/01/28 12:20:34;;;;;;;25.05;3.80;;;7.60;99.30;;;;;;4935697;28;105446;-70
2022/01/28 12:23:01;;;;;;;27.27;3.92;;;7.60;99.10;;;;;;4920934;28;20501;-69
2022/01/28 12:25:36;;;;;;;25.17;3.58;;;7.70;98.50;;;;;;4947117;28;232635;-69
2022/01/28 12:28:23;;;;;;;28.05;3.80;;;7.90;98.50;;;;;;4940727;28;20035;-70
2022/01/28 12:31:00;;;;;;;25.33;3.80;;;9.30;95.70;;;;;;4948177;28;134348;-70
2022/01/28 12:33:39;;;;;;;18.95;3.35;;;10.40;95.20;;;;;;4929088;28;20544;-70
2022/01/28 12:36:11;;;;;;;29.10;4.18;;;11.30;91.80;;;;;;4949533;28;20050;-71
2022/01/28 12:38:44;;;;;;;24.98;3.30;;;12.00;92.90;;;;;;4931190;28;20074;-70
2022/01/28 12:41:15;;;;;;;24.55;3.95;;;12.90;91.70;;;;;;4933826;28;20066;-70
2022/01/28 12:43:41;;;;;;;26.15;4.35;;;12.50;89.60;;;;;;4919505;28;51356;-69
2022/01/28 12:46:16;;;;;;;20.75;3.75;;;13.00;87.80;;;;;;4959821;28;20074;-70
2022/01/28 12:48:52;;;;;;;28.77;4.13;;;13.50;85.90;;;;;;4919944;28;29223;-69
2022/01/28 12:51:22;;;;;;;23.42;4.03;;;12.70;82.50;;;;;;4938224;28;20047;-71
2022/01/28 12:53:57;;;;;;;27.55;3.92;;;12.60;84.80;;;;;;4918407;28;137392;-70
2022/01/28 12:56:34;;;;;;;25.63;3.50;;;13.00;79.60;;;;;;4948214;28;20057;-71
2022/01/28 12:59:02;;;;;;;26.27;3.72;;;12.00;80.70;;;;;;4913248;28;20156;-70
2022/01/28 13:01:29;;;;;;;26.27;4.10;;;11.90;79.60;;;;;;4954866;28;20087;-70
2022/01/28 13:04:14;;;;;;;26.60;3.60;;;11.00;82.30;;;;;;4914391;28;237124;-70
2022/01/28 13:06:54;;;;;;;28.63;3.60;;;10.50;83.20;;;;;;4964784;28;20059;-70
2022/01/28 13:09:23;;;;;;;24.67;3.60;;;10.40;83.20;;;;;;4921584;28;107314;-70
2022/01/28 13:11:54;;;;;;;25.63;3.50;;;9.90;83.90;;;;;;4973947;28;20051;-70
2022/01/28 13:14:27;;;;;;;24.67;3.33;;;9.50;84.60;;;;;;4939535;28;203380;-70
2022/01/28 13:16:54;;;;;;;25.20;3.30;;;9.30;86.20;;;;;;4957712;28;20051;-71
2022/01/28 13:19:21;;;;;;;23.20;3.75;;;9.10;86.60;;;;;;4943508;28;80320;-70
2022/01/28 13:21:49;;;;;;;29.38;3.67;;;8.90;87.00;;;;;;4961315;28;20061;-70
2022/01/28 13:24:18;;;;;;;28.35;3.53;;;8.60;87.90;;;;;;4932167;28;208463;-71
2022/01/28 13:27:04;;;;;;;21.50;3.03;;;8.40;88.20;;;;;;4958293;28;20783;-70
2022/01/28 13:29:32;;;;;;;24.80;3.70;;;8.30;88.10;;;;;;4939901;28;93003;-69
2022/01/28 13:32:01;;;;;;;20.10;3.45;;;8.20;89.30;;;;;;4951320;28;20070;-69
2022/01/28 13:34:27;;;;;;;24.80;3.47;;;8.30;88.50;;;;;;4939323;28;208641;-69
2022/01/28 13:36:58;;;;;;;23.98;3.20;;;9.20;89.70;;;;;;4972560;28;20646;-70
2022/01/28 13:39:30;;;;;;;23.08;3.08;;;8.80;87.10;;;;;;4936489;28;225290;-70
2022/01/28 13:42:12;;;;;;;24.77;3.42;;;8.60;87.40;;;;;;4968183;28;20392;-69
2022/01/28 13:44:42;;;;;;;23.38;2.97;;;8.60;89.60;;;;;;4925022;28;134798;-69
2022/01/28 13:47:09;;;;;;;21.83;3.17;;;8.80;89.50;;;;;;4976142;28;20061;-70
2022/01/28 13:49:37;;;;;;;21.98;3.10;;;10.00;87.60;;;;;;4927705;28;96379;-70
2022/01/28 13:52:12;;;;;;;25.20;3.50;;;10.90;83.80;;;;;;4973867;28;20071;-70
2022/01/28 13:54:38;;;;;;;24.75;3.38;;;11.50;83.10;;;;;;4939938;28;105210;-70
2022/01/28 13:57:06;;;;;;;23.98;3.25;;;12.10;81.80;;;;;;4981352;28;20062;-71
2022/01/28 13:59:34;;;;;;;19.15;3.10;;;12.40;78.90;;;;;;4927614;28;33550;-71
2022/01/28 14:02:01;;;;;;;20.80;3.33;;;12.10;79.60;;;;;;4958960;28;20429;-70
2022/01/28 14:04:33;;;;;;;22.75;2.83;;;12.10;79.50;;;;;;4923422;28;206291;-70
2022/01/28 14:07:20;;;;;;;22.30;3.20;;;11.90;78.60;;;;;;4994742;28;20059;-70
2022/01/28 14:09:57;;;;;;;20.38;2.72;;;11.60;78.00;;;;;;4934557;28;247701;-69
2022/01/28 14:12:43;;;;;;;22.25;2.95;;;11.10;78.40;;;;;;4972109;28;20051;-69
2022/01/28 14:15:28;;;;;;;16.75;2.88;;;10.90;79.00;;;;;;4940468;28;36467;-70
2022/01/28 14:17:56;;;;;;;18.40;2.70;;;10.80;78.80;;;;;;4943179;28;20062;-69
2022/01/28 14:20:22;;;;;;;19.90;2.95;;;10.80;78.50;;;;;;4937680;28;146443;-69
2022/01/28 14:22:48;;;;;;;19.48;2.83;;;10.50;80.70;;;;;;4942731;28;20517;-69
2022/01/28 14:25:14;;;;;;;16.08;2.72;;;10.00;81.00;;;;;;4969190;28;157305;-70
2022/01/28 14:30:20;;;;;;;22.23;3.10;;;10.30;81.70;;;;;;4960047;28;211124;-69
2022/01/28 14:32:47;;;;;;;20.13;2.47;;;10.10;81.40;;;;;;4953211;28;20059;-70
2022/01/28 14:35:13;;;;;;;18.90;2.90;;;10.10;82.80;;;;;;4957326;28;147201;-70
2022/01/28 14:37:40;;;;;;;21.63;2.85;;;9.50;82.50;;;;;;4952908;28;20061;-69
2022/01/28 14:40:12;;;;;;;19.17;2.45;;;9.10;83.70;;;;;;4967622;28;180309;-69
2022/01/28 14:42:39;;;;;;;21.42;3.03;;;8.80;85.20;;;;;;4953867;28;20058;-69
2022/01/28 14:45:06;;;;;;;22.17;2.83;;;8.70;86.70;;;;;;4985644;28;204782;-70
2022/01/28 14:47:32;;;;;;;19.63;2.47;;;8.60;87.50;;;;;;4973082;28;20073;-70
2022/01/28 14:49:58;;;;;;;25.23;3.17;;;8.50;88.10;;;;;;4947162;28;108374;-70
2022/01/28 14:52:29;;;;;;;19.00;2.78;;;8.30;89.20;;;;;;4975742;28;20050;-70
2022/01/28 14:54:55;;;;;;;20.05;2.80;;;8.20;89.40;;;;;;4941487;28;239298;-70
2022/01/28 14:57:22;;;;;;;21.42;2.90;;;8.20;90.10;;;;;;4997559;28;20063;-70
2022/01/28 14:59:49;;;;;;;18.30;2.85;;;8.10;90.40;;;;;;4948459;28;265677;-71
2022/01/28 15:02:21;;;;;;;23.15;2.80;;;8.10;90.70;;;;;;4974908;28;20043;-71
2022/01/28 15:04:48;;;;;;;19.30;2.83;;;8.00;91.20;;;;;;4914394;28;219743;-70